Time;durP1;ratioP1;P1;durP2;ratioP2;P2;SDS_P1;SDS_P2;PMS_P1;PMS_P2;Temp;Humidity;BMP_temperature;BMP_pressure;BME280_temperature;BME280_humidity;BME280_pressure;Samples;Min_cycle;Max_cycle;Signal;HPM_P1;HPM_P2
2022/12/22 03:25:52;;;;;;;31.08;20.38;;;4.20;99.90;;;;;;4917887;29;20082;-72
2022/12/22 03:28:24;;;;;;;32.47;20.13;;;4.20;99.90;;;;;;4920177;29;20047;-72
2022/12/22 03:30:55;;;;;;;29.27;19.73;;;4.20;99.90;;;;;;4926429;29;20091;-72
2022/12/22 03:33:21;;;;;;;34.50;20.92;;;4.10;99.90;;;;;;4935410;29;20193;-72
2022/12/22 03:35:47;;;;;;;34.70;21.33;;;4.10;99.90;;;;;;4930229;29;20050;-71
2022/12/22 03:38:12;;;;;;;31.55;19.92;;;4.20;99.90;;;;;;4931554;29;20044;-71
2022/12/22 03:40:38;;;;;;;31.77;20.15;;;4.20;99.90;;;;;;4931345;29;20776;-72
2022/12/22 03:48:37;;;;;;;33.50;19.73;;;4.20;99.90;;;;;;4920131;29;20407;-72
2022/12/22 03:51:03;;;;;;;30.95;20.20;;;4.20;99.90;;;;;;4912813;29;20047;-72
2022/12/22 03:53:29;;;;;;;30.58;20.08;;;4.20;99.90;;;;;;4915662;29;20039;-73
2022/12/22 03:55:54;;;;;;;33.78;21.75;;;4.20;99.90;;;;;;4916196;29;21043;-72
2022/12/22 03:58:20;;;;;;;30.33;20.48;;;4.10;99.90;;;;;;4908100;29;20044;-72
2022/12/22 04:00:45;;;;;;;32.20;21.08;;;4.00;99.90;;;;;;4905123;29;20066;-73
2022/12/22 04:03:11;;;;;;;35.55;20.67;;;4.00;99.90;;;;;;4927686;28;20636;-73
2022/12/22 04:05:37;;;;;;;40.88;21.40;;;4.00;99.90;;;;;;4927579;28;20057;-73
2022/12/22 04:08:03;;;;;;;32.55;20.58;;;4.00;99.90;;;;;;4926394;28;20032;-73
2022/12/22 04:13:13;;;;;;;31.30;19.63;;;3.90;99.90;;;;;;4927785;28;20145;-73
2022/12/22 04:15:38;;;;;;;38.10;22.00;;;3.90;99.90;;;;;;4920666;28;20047;-72
2022/12/22 04:18:04;;;;;;;37.65;23.17;;;3.90;99.90;;;;;;4924574;28;20063;-73
2022/12/22 04:20:30;;;;;;;34.58;21.65;;;3.80;99.90;;;;;;4923100;28;20048;-73
2022/12/22 04:22:56;;;;;;;36.63;21.65;;;3.70;99.90;;;;;;4930507;28;20071;-73
2022/12/22 04:25:23;;;;;;;34.47;21.65;;;3.80;99.90;;;;;;4937021;28;20035;-73
2022/12/22 04:27:49;;;;;;;36.88;22.88;;;3.70;99.90;;;;;;4934669;28;20066;-73
2022/12/22 04:30:15;;;;;;;40.25;24.58;;;3.80;99.90;;;;;;4928651;28;20114;-73
2022/12/22 04:32:41;;;;;;;36.75;22.25;;;3.80;99.90;;;;;;4929327;28;20493;-73
2022/12/22 04:35:07;;;;;;;31.27;19.27;;;3.80;99.90;;;;;;4935666;28;20037;-73
2022/12/22 04:37:34;;;;;;;30.83;21.05;;;3.80;99.90;;;;;;4933968;28;20046;-71
2022/12/22 04:39:59;;;;;;;36.45;23.08;;;3.80;99.90;;;;;;4934327;28;20031;-71
2022/12/22 04:42:25;;;;;;;40.58;22.98;;;3.90;99.90;;;;;;4934607;28;20046;-71
2022/12/22 04:44:50;;;;;;;35.35;21.60;;;3.80;99.90;;;;;;4932350;28;20039;-71
2022/12/22 04:47:16;;;;;;;34.22;21.42;;;3.80;99.90;;;;;;4931904;28;20047;-72
2022/12/22 04:49:42;;;;;;;32.70;21.35;;;3.70;99.90;;;;;;4926474;28;20598;-72
2022/12/22 04:52:07;;;;;;;32.45;20.42;;;3.70;99.90;;;;;;4934293;28;20050;-72
2022/12/22 04:54:33;;;;;;;32.67;21.48;;;3.80;99.90;;;;;;4935266;28;20040;-72
2022/12/22 04:56:59;;;;;;;35.90;22.23;;;3.70;99.90;;;;;;4932272;28;20054;-72
2022/12/22 04:59:25;;;;;;;37.80;23.00;;;3.80;99.90;;;;;;4931239;28;20535;-72
2022/12/22 05:01:50;;;;;;;35.25;21.73;;;3.80;99.90;;;;;;4924981;28;20047;-72
2022/12/22 05:04:16;;;;;;;34.65;21.42;;;3.80;99.90;;;;;;4937681;28;20638;-72
2022/12/22 05:06:41;;;;;;;31.38;20.52;;;3.90;99.90;;;;;;4933067;28;20126;-72
2022/12/22 05:09:08;;;;;;;34.45;20.95;;;3.90;99.90;;;;;;4935225;28;20678;-72
2022/12/22 05:11:34;;;;;;;33.42;20.50;;;3.90;99.90;;;;;;4935710;28;20032;-72
2022/12/22 05:13:59;;;;;;;32.25;20.90;;;3.90;99.90;;;;;;4930428;28;20463;-72
2022/12/22 05:16:25;;;;;;;29.50;20.63;;;3.80;99.90;;;;;;4936743;28;20070;-72
2022/12/22 05:18:51;;;;;;;32.25;19.52;;;3.90;99.90;;;;;;4920269;28;20071;-72
2022/12/22 05:21:19;;;;;;;32.13;20.80;;;3.90;99.90;;;;;;4927331;28;20047;-72
2022/12/22 05:23:45;;;;;;;34.33;20.55;;;3.90;99.90;;;;;;4936112;28;20039;-72
2022/12/22 05:26:13;;;;;;;31.75;19.80;;;3.90;99.90;;;;;;4929741;28;20050;-72
2022/12/22 05:28:43;;;;;;;35.25;21.30;;;3.90;99.90;;;;;;4926764;28;20032;-72
2022/12/22 05:31:13;;;;;;;34.70;20.65;;;3.90;99.90;;;;;;4930418;28;20043;-72
2022/12/22 05:33:39;;;;;;;32.63;20.77;;;3.80;99.90;;;;;;4931496;28;20031;-72
2022/12/22 05:36:05;;;;;;;32.10;20.30;;;3.80;99.90;;;;;;4928806;28;22687;-72
2022/12/22 05:38:31;;;;;;;29.77;19.48;;;3.80;99.90;;;;;;4931816;28;20035;-72
2022/12/22 05:40:56;;;;;;;31.50;20.02;;;3.80;99.90;;;;;;4933155;28;20546;-72
2022/12/22 05:43:22;;;;;;;29.30;18.83;;;3.80;99.90;;;;;;4932210;28;20589;-72
2022/12/22 05:45:48;;;;;;;31.17;19.45;;;3.80;99.90;;;;;;4930474;28;20095;-72
2022/12/22 05:48:13;;;;;;;31.52;19.80;;;3.80;99.90;;;;;;4931173;28;20039;-72
2022/12/22 05:50:39;;;;;;;31.63;19.42;;;3.80;99.90;;;;;;4930318;28;20039;-72
2022/12/22 05:53:06;;;;;;;31.17;19.00;;;3.80;99.90;;;;;;4928847;28;20035;-72
2022/12/22 05:55:33;;;;;;;31.73;19.17;;;3.80;99.90;;;;;;4928943;28;20066;-72
2022/12/22 05:58:02;;;;;;;36.60;21.20;;;3.80;99.90;;;;;;4919484;28;20216;-73
2022/12/22 06:00:29;;;;;;;30.45;19.10;;;3.80;99.90;;;;;;4928365;28;20043;-73
2022/12/22 06:02:54;;;;;;;29.90;18.27;;;3.80;99.90;;;;;;4925465;28;20042;-72
2022/12/22 06:05:20;;;;;;;28.35;19.40;;;3.80;99.90;;;;;;4928634;28;20035;-73
2022/12/22 06:07:46;;;;;;;33.63;20.08;;;3.80;99.90;;;;;;4930256;28;20111;-73
2022/12/22 06:10:12;;;;;;;33.67;19.75;;;3.80;99.90;;;;;;4932701;28;20086;-72
2022/12/22 06:12:41;;;;;;;30.75;19.70;;;3.80;99.90;;;;;;4934363;28;20115;-72
2022/12/22 06:15:10;;;;;;;35.97;21.58;;;3.90;99.90;;;;;;4931249;28;20055;-72
2022/12/22 06:17:35;;;;;;;31.13;20.02;;;3.90;99.90;;;;;;4932536;28;20043;-72
2022/12/22 06:20:01;;;;;;;29.65;19.20;;;3.90;99.90;;;;;;4930133;28;20540;-73
2022/12/22 06:22:27;;;;;;;32.72;20.77;;;3.90;99.90;;;;;;4931130;28;20190;-73
2022/12/22 06:24:52;;;;;;;35.42;21.73;;;3.90;99.90;;;;;;4932658;28;20039;-72
2022/12/22 06:27:18;;;;;;;33.25;21.95;;;3.90;99.90;;;;;;4918427;28;20077;-72
2022/12/22 06:29:44;;;;;;;42.67;25.95;;;4.00;99.90;;;;;;4928500;28;20039;-72
2022/12/22 06:32:09;;;;;;;45.50;26.45;;;4.00;99.90;;;;;;4931049;28;20701;-72
2022/12/22 06:34:35;;;;;;;44.67;26.08;;;4.00;99.90;;;;;;4938042;28;23772;-72
2022/12/22 06:37:01;;;;;;;45.35;26.83;;;4.00;99.90;;;;;;4933003;28;20097;-72
2022/12/22 06:39:26;;;;;;;47.22;28.73;;;4.00;99.90;;;;;;4929248;28;20035;-72
2022/12/22 06:44:36;;;;;;;30.88;20.52;;;4.00;99.90;;;;;;4933301;28;20049;-72
2022/12/22 06:47:02;;;;;;;38.78;22.90;;;4.00;99.90;;;;;;4938199;28;20031;-72
2022/12/22 06:49:27;;;;;;;42.78;26.30;;;4.00;99.90;;;;;;4939450;28;20035;-72
2022/12/22 06:51:53;;;;;;;37.90;24.58;;;4.00;99.90;;;;;;4939220;28;20107;-72
2022/12/22 06:54:19;;;;;;;45.15;28.48;;;4.00;99.90;;;;;;4940890;28;20106;-72
2022/12/22 06:56:44;;;;;;;46.85;25.52;;;3.90;99.90;;;;;;4939792;28;20059;-73
2022/12/22 06:59:10;;;;;;;46.67;25.52;;;3.90;99.90;;;;;;4937011;28;20031;-73
2022/12/22 07:01:35;;;;;;;45.13;24.27;;;3.90;99.90;;;;;;4940198;28;20042;-73
2022/12/22 07:04:01;;;;;;;36.72;21.98;;;4.00;99.90;;;;;;4935512;28;20047;-73
2022/12/22 07:06:27;;;;;;;37.72;22.20;;;4.00;99.90;;;;;;4936270;28;20035;-73
2022/12/22 07:08:52;;;;;;;34.53;19.95;;;3.90;99.90;;;;;;4937529;28;20404;-72
2022/12/22 07:11:18;;;;;;;33.88;20.35;;;3.90;99.90;;;;;;4940247;28;20609;-72
2022/12/22 07:13:44;;;;;;;32.10;21.42;;;3.90;99.90;;;;;;4934815;28;20035;-72
2022/12/22 07:16:10;;;;;;;33.53;20.83;;;3.90;99.90;;;;;;4936976;28;20071;-71
2022/12/22 07:18:39;;;;;;;35.90;21.38;;;4.00;99.90;;;;;;4936166;28;20039;-71
2022/12/22 07:21:07;;;;;;;34.40;21.63;;;4.00;99.90;;;;;;4937384;28;20470;-71
2022/12/22 07:23:34;;;;;;;37.65;22.83;;;4.00;99.90;;;;;;4935502;28;20031;-71
2022/12/22 07:26:00;;;;;;;36.63;22.20;;;4.00;99.90;;;;;;4941791;28;20039;-72
2022/12/22 07:28:26;;;;;;;41.30;23.33;;;4.00;99.90;;;;;;4918188;28;20042;-71
2022/12/22 07:30:53;;;;;;;34.08;23.33;;;4.00;99.90;;;;;;4929680;28;20039;-72
2022/12/22 07:33:19;;;;;;;37.78;24.10;;;4.00;99.90;;;;;;4914837;28;20047;-71
2022/12/22 07:35:45;;;;;;;68.25;36.95;;;4.10;99.90;;;;;;4935945;28;20055;-71
2022/12/22 07:38:11;;;;;;;72.95;39.35;;;4.20;99.90;;;;;;4932679;28;20041;-71
2022/12/22 07:40:37;;;;;;;68.93;38.58;;;4.30;99.90;;;;;;4938425;28;20595;-70
2022/12/22 07:43:02;;;;;;;64.53;36.72;;;4.30;99.90;;;;;;4936577;28;20035;-71
2022/12/22 07:45:28;;;;;;;68.53;39.88;;;4.40;99.90;;;;;;4924412;28;20619;-71
2022/12/22 08:16:11;;;;;;;43.95;26.83;;;4.50;99.90;;;;;;4910927;28;20070;-70
2022/12/22 08:18:37;;;;;;;43.55;27.70;;;4.60;99.90;;;;;;4937834;28;20050;-70
2022/12/22 08:21:04;;;;;;;38.83;25.40;;;4.70;99.90;;;;;;4932672;28;20040;-69
2022/12/22 08:23:31;;;;;;;39.42;25.85;;;4.70;99.90;;;;;;4931423;28;20074;-72
2022/12/22 08:26:29;;;;;;;40.17;24.73;;;4.70;99.90;;;;;;4936255;28;20042;-74
2022/12/22 08:29:02;;;;;;;52.45;31.25;;;4.80;99.90;;;;;;4936635;28;20039;-70
2022/12/22 08:31:29;;;;;;;45.25;25.77;;;4.80;99.90;;;;;;4923808;28;20062;-70
2022/12/22 08:33:57;;;;;;;48.22;30.60;;;4.70;99.90;;;;;;4924146;28;20027;-71
2022/12/22 08:36:23;;;;;;;47.50;29.67;;;4.50;99.90;;;;;;4898886;28;21102;-71
2022/12/22 08:38:49;;;;;;;48.80;30.80;;;4.30;99.90;;;;;;4902291;28;20572;-71
2022/12/22 08:41:48;;;;;;;46.30;29.75;;;4.30;99.90;;;;;;4915686;28;20137;-73
2022/12/22 08:44:01;;;;;;;83.25;46.95;;;4.30;99.90;;;;;;4925608;28;20470;-73
2022/12/22 08:46:27;;;;;;;80.68;48.22;;;4.40;99.90;;;;;;4927582;28;20114;-72
2022/12/22 08:48:52;;;;;;;62.88;38.97;;;4.50;99.90;;;;;;4923066;28;20464;-73
2022/12/22 08:51:18;;;;;;;47.35;28.55;;;4.60;99.90;;;;;;4911483;28;20412;-72
2022/12/22 08:53:44;;;;;;;42.72;27.20;;;4.60;99.90;;;;;;4922285;28;20195;-73
2022/12/22 08:56:09;;;;;;;54.40;32.53;;;4.70;99.90;;;;;;4913785;28;20047;-73
2022/12/22 08:58:35;;;;;;;56.47;33.45;;;4.70;99.90;;;;;;4920783;28;20070;-73
2022/12/22 09:01:01;;;;;;;40.63;24.50;;;4.70;99.90;;;;;;4914395;28;20118;-73
2022/12/22 09:03:26;;;;;;;54.65;33.67;;;4.80;99.90;;;;;;4918178;28;20039;-73
2022/12/22 09:06:00;;;;;;;57.63;36.30;;;4.90;99.90;;;;;;4921895;28;20087;-72
2022/12/22 09:08:25;;;;;;;55.47;34.88;;;5.10;99.90;;;;;;4899837;28;24575;-73
2022/12/22 09:10:51;;;;;;;44.67;28.35;;;5.10;99.90;;;;;;4921872;28;20086;-73
2022/12/22 09:13:17;;;;;;;46.28;28.67;;;5.10;99.90;;;;;;4921694;28;20063;-73
2022/12/22 09:15:42;;;;;;;44.00;26.52;;;5.10;99.90;;;;;;4917920;28;20485;-72
2022/12/22 09:18:08;;;;;;;43.17;28.02;;;5.10;99.90;;;;;;4922441;28;20048;-73
2022/12/22 09:20:33;;;;;;;40.78;25.23;;;5.10;99.90;;;;;;4922834;28;20027;-72
2022/12/22 09:22:59;;;;;;;44.03;27.15;;;5.10;99.90;;;;;;4937895;28;20050;-72
2022/12/22 09:25:26;;;;;;;48.17;28.92;;;5.10;99.90;;;;;;4920242;28;20047;-73
2022/12/22 09:27:51;;;;;;;41.83;25.90;;;5.20;99.90;;;;;;4923777;28;20031;-72
2022/12/22 09:30:17;;;;;;;52.88;33.67;;;5.10;99.90;;;;;;4918371;28;20043;-72
2022/12/22 09:32:43;;;;;;;42.78;25.95;;;5.00;99.90;;;;;;4924639;28;20384;-70
2022/12/22 09:35:08;;;;;;;60.35;32.67;;;5.00;99.90;;;;;;4917972;28;20109;-70
2022/12/22 09:37:34;;;;;;;60.28;35.00;;;5.10;99.90;;;;;;4926330;28;20574;-70
2022/12/22 09:40:00;;;;;;;34.53;21.58;;;5.20;99.90;;;;;;4917486;28;20027;-70
2022/12/22 09:42:26;;;;;;;28.85;18.70;;;5.30;99.90;;;;;;4903153;28;20035;-71
2022/12/22 09:44:52;;;;;;;30.02;18.52;;;5.10;99.90;;;;;;4903447;28;20035;-71
2022/12/22 09:47:34;;;;;;;32.60;19.25;;;4.90;99.90;;;;;;4905508;28;20119;-71
2022/12/22 09:50:00;;;;;;;36.45;22.38;;;4.80;99.90;;;;;;4908681;28;20034;-70
2022/12/22 09:52:35;;;;;;;37.67;23.27;;;4.80;99.90;;;;;;4912371;28;20595;-70
2022/12/22 09:55:32;;;;;;;59.10;35.30;;;4.80;99.90;;;;;;4915582;28;20524;-70
2022/12/22 09:57:57;;;;;;;56.45;31.60;;;5.00;99.90;;;;;;4879143;29;20799;-70
2022/12/22 10:00:25;;;;;;;45.30;26.20;;;5.20;99.90;;;;;;4916638;28;20043;-72
2022/12/22 10:03:32;;;;;;;38.50;24.63;;;5.20;99.90;;;;;;4914953;28;20043;-70
2022/12/22 10:06:09;;;;;;;31.30;20.88;;;5.20;99.90;;;;;;4910387;28;20067;-70
2022/12/22 10:08:37;;;;;;;173.68;76.38;;;5.20;99.90;;;;;;4923265;28;20321;-70
2022/12/22 10:11:03;;;;;;;134.88;61.90;;;5.30;99.90;;;;;;4919083;28;20038;-70
2022/12/22 10:13:29;;;;;;;36.72;20.27;;;5.50;99.90;;;;;;4903596;28;20586;-71
2022/12/22 10:15:55;;;;;;;31.48;19.27;;;5.50;99.90;;;;;;4920312;28;20835;-72
2022/12/22 10:18:28;;;;;;;30.48;18.35;;;5.30;99.90;;;;;;4932787;28;20088;-72
2022/12/22 10:21:11;;;;;;;28.83;17.95;;;5.20;99.90;;;;;;4914168;28;20110;-71
2022/12/22 10:23:44;;;;;;;28.42;18.27;;;5.20;99.90;;;;;;4904533;28;20058;-71
2022/12/22 10:26:15;;;;;;;33.35;18.60;;;5.10;99.90;;;;;;4903407;28;20035;-72
2022/12/22 10:28:52;;;;;;;27.45;18.02;;;5.00;99.90;;;;;;4909170;28;20131;-71
2022/12/22 10:31:30;;;;;;;32.85;21.92;;;5.00;99.90;;;;;;4916385;28;20054;-72
2022/12/22 10:34:10;;;;;;;33.90;21.20;;;4.90;99.90;;;;;;4913148;28;20047;-72
2022/12/22 10:36:36;;;;;;;35.50;21.25;;;5.10;99.90;;;;;;4914655;28;20055;-72
2022/12/22 10:39:05;;;;;;;37.58;20.08;;;5.30;99.90;;;;;;4917680;28;20501;-71
2022/12/22 10:41:36;;;;;;;30.35;19.35;;;5.40;99.90;;;;;;4922371;28;20156;-71
2022/12/22 10:44:12;;;;;;;31.98;19.40;;;5.30;99.90;;;;;;4928185;28;20059;-70
2022/12/22 10:46:45;;;;;;;30.85;19.60;;;5.20;99.90;;;;;;4929775;28;20031;-70
2022/12/22 10:49:13;;;;;;;35.33;20.25;;;5.30;99.90;;;;;;4904370;28;20179;-70
2022/12/22 10:51:41;;;;;;;34.50;20.90;;;5.30;99.90;;;;;;4919976;28;20635;-71
2022/12/22 10:54:07;;;;;;;33.28;20.00;;;5.30;99.90;;;;;;4932700;28;20031;-71
2022/12/22 10:56:33;;;;;;;48.80;31.98;;;5.30;99.90;;;;;;4935441;28;20070;-71
2022/12/22 10:59:02;;;;;;;34.92;22.25;;;5.40;99.90;;;;;;4930667;28;20479;-70
2022/12/22 11:01:31;;;;;;;35.50;23.20;;;5.60;99.90;;;;;;4935297;28;20141;-70
2022/12/22 11:04:13;;;;;;;32.78;21.60;;;5.60;99.90;;;;;;4940304;28;20113;-70
2022/12/22 11:06:40;;;;;;;;;;;5.60;99.90;;;;;;4946271;28;20043;-70
2022/12/22 11:09:08;;;;;;;42.72;27.50;;;5.60;99.90;;;;;;4946870;28;19914;-70
2022/12/22 11:11:39;;;;;;;36.00;23.58;;;5.60;99.90;;;;;;4932952;28;20039;-70
2022/12/22 11:14:29;;;;;;;36.42;20.52;;;5.50;99.90;;;;;;4934211;28;20071;-71
2022/12/22 11:17:15;;;;;;;32.55;21.00;;;5.60;99.90;;;;;;4932095;28;20048;-70
2022/12/22 11:19:49;;;;;;;34.03;22.05;;;5.60;99.90;;;;;;4936617;28;20027;-72
2022/12/22 11:22:14;;;;;;;32.13;20.40;;;5.60;99.90;;;;;;4938437;28;20031;-70
2022/12/22 11:25:15;;;;;;;34.17;21.80;;;5.50;99.90;;;;;;4935853;28;20054;-70
2022/12/22 11:27:52;;;;;;;33.38;20.90;;;5.50;99.90;;;;;;4922451;28;20059;-70
2022/12/22 11:30:26;;;;;;;37.38;21.33;;;5.40;99.90;;;;;;4937114;28;20047;-70
2022/12/22 11:32:51;;;;;;;34.28;23.02;;;5.30;99.90;;;;;;4927000;28;20092;-71
2022/12/22 11:35:32;;;;;;;36.45;22.20;;;5.20;99.90;;;;;;4929300;28;20134;-71
2022/12/22 11:38:12;;;;;;;36.50;23.77;;;5.20;99.90;;;;;;4923824;28;20051;-71
2022/12/22 11:40:45;;;;;;;34.75;23.02;;;5.30;99.90;;;;;;4926892;28;20035;-70
2022/12/22 11:43:54;;;;;;;31.13;20.55;;;5.30;99.90;;;;;;4918260;28;20102;-71
2022/12/22 11:46:45;;;;;;;38.25;23.13;;;5.30;99.90;;;;;;4926464;28;20035;-71
2022/12/22 11:49:19;;;;;;;37.67;24.73;;;5.20;99.90;;;;;;4921921;28;20027;-71
2022/12/22 11:52:11;;;;;;;38.60;25.08;;;5.20;99.90;;;;;;4926629;28;20953;-71
2022/12/22 11:54:58;;;;;;;43.63;26.63;;;5.20;99.90;;;;;;4927918;28;20043;-72
2022/12/22 11:57:36;;;;;;;35.53;24.73;;;5.20;99.90;;;;;;4930232;28;20055;-72
2022/12/22 12:00:06;;;;;;;36.90;23.35;;;5.20;99.90;;;;;;4924231;28;20488;-72
2022/12/22 12:02:35;;;;;;;36.85;24.23;;;5.20;99.90;;;;;;4925828;28;20086;-72
2022/12/22 12:05:15;;;;;;;40.70;27.10;;;5.10;99.90;;;;;;4919720;28;20039;-72
2022/12/22 12:07:50;;;;;;;47.15;32.03;;;5.20;99.90;;;;;;4926809;28;20086;-72
2022/12/22 12:10:31;;;;;;;39.70;25.63;;;5.20;99.90;;;;;;4916562;28;20039;-72
2022/12/22 12:13:28;;;;;;;42.75;26.67;;;5.40;99.90;;;;;;4925204;28;20047;-72
2022/12/22 12:16:29;;;;;;;40.88;25.17;;;5.40;99.90;;;;;;4925524;28;20056;-72
2022/12/22 12:19:22;;;;;;;39.00;24.45;;;5.40;99.90;;;;;;4904937;28;20053;-72
2022/12/22 12:21:53;;;;;;;37.65;24.92;;;5.30;99.90;;;;;;4928644;28;20040;-72
2022/12/22 12:24:39;;;;;;;43.67;26.70;;;5.30;99.90;;;;;;4929559;28;20543;-73
2022/12/22 12:27:17;;;;;;;45.10;28.48;;;5.20;99.90;;;;;;4907824;28;20035;-72
2022/12/22 12:30:01;;;;;;;82.05;63.90;;;5.20;99.90;;;;;;4928917;28;20062;-72
2022/12/22 12:32:36;;;;;;;46.45;30.55;;;5.30;99.90;;;;;;4925727;28;20142;-72
2022/12/22 12:35:52;;;;;;;49.10;33.33;;;5.40;99.90;;;;;;4924622;28;20047;-72
2022/12/22 12:38:41;;;;;;;69.40;36.75;;;5.60;99.90;;;;;;4880000;29;20048;-72
2022/12/22 12:41:26;;;;;;;70.55;37.42;;;5.80;99.90;;;;;;4879984;29;20263;-72
2022/12/22 12:43:54;;;;;;;89.50;44.28;;;5.90;99.90;;;;;;4911657;28;20055;-72
2022/12/22 12:46:51;;;;;;;55.35;36.10;;;5.90;99.90;;;;;;4923679;28;20047;-72
2022/12/22 12:49:34;;;;;;;51.63;32.42;;;5.90;99.90;;;;;;4920774;28;20106;-72
2022/12/22 12:52:03;;;;;;;50.90;29.27;;;5.80;99.90;;;;;;4920000;28;20043;-72
2022/12/22 12:54:29;;;;;;;53.70;31.73;;;5.60;99.90;;;;;;4921880;28;20320;-71
2022/12/22 12:57:08;;;;;;;38.85;26.08;;;5.40;99.90;;;;;;4924098;28;20496;-71
2022/12/22 12:59:40;;;;;;;46.95;31.58;;;5.30;99.90;;;;;;4913919;28;20050;-72
2022/12/22 13:02:31;;;;;;;62.55;43.10;;;5.10;99.90;;;;;;4920623;28;20043;-72
2022/12/22 13:04:59;;;;;;;44.25;33.60;;;5.00;99.90;;;;;;4912433;28;20040;-72
2022/12/22 13:08:02;;;;;;;46.65;28.17;;;4.90;99.90;;;;;;4892920;28;20055;-70
2022/12/22 13:10:28;;;;;;;40.75;25.88;;;4.90;99.90;;;;;;4902848;28;20471;-72
2022/12/22 13:12:56;;;;;;;43.28;28.00;;;4.80;99.90;;;;;;4899179;28;20086;-72
2022/12/22 13:15:43;;;;;;;46.60;28.83;;;4.80;99.90;;;;;;4918358;28;20042;-72
2022/12/22 13:18:24;;;;;;;44.78;27.90;;;4.80;99.90;;;;;;4917774;28;20047;-72
2022/12/22 13:21:04;;;;;;;48.13;30.40;;;4.80;99.90;;;;;;4913981;28;20207;-72
2022/12/22 13:23:35;;;;;;;44.45;26.90;;;5.00;99.90;;;;;;4913569;28;20035;-72
2022/12/22 13:26:13;;;;;;;48.33;29.65;;;4.90;99.90;;;;;;4904128;28;21276;-72
2022/12/22 13:28:47;;;;;;;46.13;30.13;;;4.90;99.90;;;;;;4913102;28;20046;-72
2022/12/22 13:31:17;;;;;;;44.70;29.40;;;4.90;99.90;;;;;;4909792;28;20044;-73
2022/12/22 13:33:44;;;;;;;49.63;32.00;;;5.00;99.90;;;;;;4912196;28;20039;-71
2022/12/22 13:36:18;;;;;;;49.72;32.20;;;5.10;99.90;;;;;;4903006;28;20051;-73
2022/12/22 13:38:45;;;;;;;47.75;32.90;;;5.10;99.90;;;;;;4915702;28;20739;-71
2022/12/22 13:41:19;;;;;;;51.58;30.58;;;5.20;99.90;;;;;;4921092;28;20067;-71
2022/12/22 13:43:53;;;;;;;51.90;33.33;;;5.20;99.90;;;;;;4917555;28;20040;-70
2022/12/22 13:46:19;;;;;;;53.65;33.05;;;5.20;99.90;;;;;;4907299;28;20048;-70
2022/12/22 13:48:47;;;;;;;50.08;32.35;;;5.00;99.90;;;;;;4913428;28;20040;-70
2022/12/22 13:51:27;;;;;;;54.08;33.28;;;4.90;99.90;;;;;;4922925;28;20475;-71
2022/12/22 13:54:00;;;;;;;56.63;34.13;;;4.90;99.90;;;;;;4919357;28;20055;-72
2022/12/22 13:56:35;;;;;;;52.88;32.95;;;4.80;99.90;;;;;;4911279;28;20723;-71
2022/12/22 13:59:02;;;;;;;61.78;40.03;;;4.70;99.90;;;;;;4917112;28;20046;-71
2022/12/22 14:01:28;;;;;;;58.42;33.90;;;4.70;99.90;;;;;;4911993;28;20039;-71
2022/12/22 14:04:06;;;;;;;53.90;33.67;;;4.60;99.90;;;;;;4922872;28;20034;-71
2022/12/22 14:06:39;;;;;;;62.08;35.10;;;4.50;99.90;;;;;;4923657;28;20614;-72
2022/12/22 14:09:21;;;;;;;65.57;35.80;;;4.50;99.90;;;;;;4911424;28;20367;-71
2022/12/22 14:11:51;;;;;;;60.95;33.58;;;4.50;99.90;;;;;;4919894;28;20063;-71
2022/12/22 14:14:24;;;;;;;53.33;32.80;;;4.50;99.90;;;;;;4917003;28;20445;-69
2022/12/22 14:16:53;;;;;;;55.85;34.28;;;4.50;99.90;;;;;;4913099;28;20052;-72
2022/12/22 14:19:20;;;;;;;53.58;34.92;;;4.50;99.90;;;;;;4898417;28;20046;-71
2022/12/22 14:22:03;;;;;;;56.63;33.95;;;4.50;99.90;;;;;;4925976;28;20055;-71
2022/12/22 14:24:34;;;;;;;53.05;34.22;;;4.50;99.90;;;;;;4914839;28;20081;-71
2022/12/22 14:27:00;;;;;;;57.45;35.35;;;4.50;99.90;;;;;;4924334;28;20146;-71
2022/12/22 14:29:29;;;;;;;56.20;36.03;;;4.50;99.90;;;;;;4920830;28;20071;-72
2022/12/22 14:32:03;;;;;;;54.25;35.08;;;4.50;99.90;;;;;;4920324;28;20493;-72
2022/12/22 14:34:33;;;;;;;61.13;35.00;;;4.40;99.90;;;;;;4927324;28;20076;-71
2022/12/22 14:37:00;;;;;;;56.83;34.60;;;4.40;99.90;;;;;;4925957;28;20618;-72
2022/12/22 14:39:31;;;;;;;51.30;32.90;;;4.40;99.90;;;;;;4905692;28;20032;-71
2022/12/22 14:42:04;;;;;;;55.42;35.15;;;4.40;99.90;;;;;;4911055;28;20047;-71
2022/12/22 14:44:35;;;;;;;54.13;33.97;;;4.50;99.90;;;;;;4911801;28;20165;-71
2022/12/22 14:47:18;;;;;;;55.40;34.35;;;4.50;99.90;;;;;;4919622;28;20105;-71
2022/12/22 14:50:12;;;;;;;53.20;33.83;;;4.50;99.90;;;;;;4917207;28;20049;-71
2022/12/22 14:52:50;;;;;;;52.33;32.53;;;4.50;99.90;;;;;;4921070;28;20142;-71
2022/12/22 14:55:30;;;;;;;59.88;34.03;;;4.50;99.90;;;;;;4915565;28;20824;-71
2022/12/22 14:58:09;;;;;;;57.47;34.22;;;4.50;99.90;;;;;;4920729;28;21856;-71
2022/12/22 15:00:38;;;;;;;58.78;32.30;;;4.50;99.90;;;;;;4916500;28;21869;-71
2022/12/22 15:03:24;;;;;;;56.20;34.08;;;4.40;99.90;;;;;;4903738;28;20083;-71
2022/12/22 15:05:51;;;;;;;58.97;34.80;;;4.40;99.90;;;;;;4929709;28;20066;-72
2022/12/22 15:08:40;;;;;;;55.63;35.08;;;4.40;99.90;;;;;;4918141;28;20047;-71
2022/12/22 15:11:15;;;;;;;59.53;33.50;;;4.40;99.90;;;;;;4919739;28;20618;-72
2022/12/22 15:13:43;;;;;;;56.85;33.13;;;4.40;99.90;;;;;;4901189;28;20051;-69
2022/12/22 15:16:14;;;;;;;55.67;34.42;;;4.50;99.90;;;;;;4922913;28;20488;-70
2022/12/22 15:18:40;;;;;;;53.08;33.85;;;4.50;99.90;;;;;;4914660;28;20032;-72
2022/12/22 15:21:11;;;;;;;57.97;35.63;;;4.50;99.90;;;;;;4906832;28;20114;-73
2022/12/22 15:23:36;;;;;;;53.80;32.92;;;4.50;99.90;;;;;;4914121;28;20563;-72
2022/12/22 15:26:02;;;;;;;59.22;37.25;;;4.50;99.90;;;;;;4917727;28;20047;-71
2022/12/22 15:28:28;;;;;;;59.63;33.75;;;4.50;99.90;;;;;;4907207;28;20678;-71
2022/12/22 15:30:53;;;;;;;57.17;34.38;;;4.60;99.90;;;;;;4910161;28;20043;-72
2022/12/22 15:33:19;;;;;;;55.22;35.25;;;4.50;99.90;;;;;;4918244;28;20123;-70
2022/12/22 15:35:46;;;;;;;56.50;34.50;;;4.60;99.90;;;;;;4918723;28;20047;-70
2022/12/22 15:38:19;;;;;;;57.17;34.92;;;4.60;99.90;;;;;;4915486;28;20043;-69
2022/12/22 15:40:45;;;;;;;59.80;36.28;;;4.50;99.90;;;;;;4916734;28;20126;-70
2022/12/22 15:43:13;;;;;;;71.00;44.90;;;4.50;99.90;;;;;;4915722;28;20086;-70
2022/12/22 15:45:39;;;;;;;57.42;37.10;;;4.50;99.90;;;;;;4907299;28;20035;-71
2022/12/22 15:48:09;;;;;;;60.10;36.30;;;4.50;99.90;;;;;;4916901;28;20065;-71
2022/12/22 15:50:39;;;;;;;56.05;34.53;;;4.50;99.90;;;;;;4919651;28;20134;-72
2022/12/22 15:53:08;;;;;;;61.25;38.10;;;4.50;99.90;;;;;;4901629;28;20601;-72
2022/12/22 15:55:39;;;;;;;58.13;36.10;;;4.50;99.90;;;;;;4912188;28;20050;-72
2022/12/22 15:58:05;;;;;;;65.80;40.45;;;4.50;99.90;;;;;;4915436;28;20143;-71
2022/12/22 16:00:31;;;;;;;78.38;49.70;;;4.70;99.90;;;;;;4918986;28;20023;-71
2022/12/22 16:02:56;;;;;;;58.38;34.35;;;4.80;99.90;;;;;;4911751;28;20094;-71
2022/12/22 16:05:22;;;;;;;57.85;35.15;;;4.80;99.90;;;;;;4913121;28;20052;-70
2022/12/22 16:07:48;;;;;;;58.13;34.80;;;4.80;99.90;;;;;;4909918;28;20069;-72
2022/12/22 16:10:24;;;;;;;56.65;33.28;;;4.90;99.90;;;;;;4894495;28;20051;-72
2022/12/22 16:12:58;;;;;;;68.40;40.78;;;4.80;99.90;;;;;;4916195;28;20633;-71
2022/12/22 16:15:42;;;;;;;64.90;37.25;;;4.90;99.90;;;;;;4909400;28;20051;-70
2022/12/22 16:18:11;;;;;;;63.85;38.42;;;5.00;99.90;;;;;;4916445;28;20043;-70
2022/12/22 16:20:40;;;;;;;59.03;36.70;;;5.00;99.90;;;;;;4911951;28;20084;-70
2022/12/22 16:23:11;;;;;;;54.05;36.00;;;5.00;99.90;;;;;;4916276;28;20016;-70
2022/12/22 16:25:38;;;;;;;62.47;39.35;;;5.10;99.90;;;;;;4920973;28;20928;-70
2022/12/22 16:28:04;;;;;;;56.85;37.15;;;5.10;99.90;;;;;;4921137;28;20039;-67
2022/12/22 16:30:33;;;;;;;60.33;35.30;;;5.10;99.90;;;;;;4921103;28;20061;-70
2022/12/22 16:32:59;;;;;;;62.70;36.55;;;5.10;99.90;;;;;;4925005;28;20193;-69
2022/12/22 16:35:27;;;;;;;60.55;37.30;;;5.10;99.90;;;;;;4915688;28;20404;-70
2022/12/22 16:37:58;;;;;;;56.70;35.78;;;5.10;99.90;;;;;;4919556;28;20098;-67
2022/12/22 16:40:25;;;;;;;56.75;35.53;;;5.10;99.90;;;;;;4922642;28;20455;-69
2022/12/22 16:42:57;;;;;;;58.60;34.70;;;5.00;99.90;;;;;;4913523;28;20246;-68
2022/12/22 16:45:26;;;;;;;55.50;36.03;;;4.90;99.90;;;;;;4929522;28;20039;-69
2022/12/22 16:47:56;;;;;;;57.13;38.28;;;4.90;99.90;;;;;;4926222;28;20046;-75
2022/12/22 16:50:31;;;;;;;59.53;38.25;;;4.90;99.90;;;;;;4922465;28;20094;-75
2022/12/22 16:52:57;;;;;;;68.55;41.72;;;5.00;99.90;;;;;;4918757;28;20043;-75
2022/12/22 16:55:23;;;;;;;107.22;64.47;;;5.10;99.90;;;;;;4925084;28;20091;-75
2022/12/22 16:57:49;;;;;;;102.90;65.25;;;5.10;99.90;;;;;;4922838;28;20195;-75
2022/12/22 17:00:35;;;;;;;109.40;69.15;;;5.20;99.90;;;;;;4925696;28;20028;-75